Time;durP1;ratioP1;P1;durP2;ratioP2;P2;SDS_P1;SDS_P2;PMS_P1;PMS_P2;Temp;Humidity;BMP_temperature;BMP_pressure;BME280_temperature;BME280_humidity;BME280_pressure;Samples;Min_cycle;Max_cycle;Signal;HPM_P1;HPM_P2
2022/07/11 00:02:19;;;;;;;3.28;1.50;;;12.80;99.90;;;;;;5093443;28;20582;-88
2022/07/11 00:04:47;;;;;;;4.53;1.40;;;12.70;99.90;;;;;;5115065;28;20393;-88
2022/07/11 00:07:15;;;;;;;4.55;1.55;;;12.70;99.90;;;;;;5096884;28;20485;-87
2022/07/11 00:09:43;;;;;;;5.27;1.90;;;12.60;99.90;;;;;;5097017;28;20383;-86
2022/07/11 00:12:12;;;;;;;5.47;1.70;;;12.60;99.90;;;;;;5096736;28;20824;-87
2022/07/11 00:14:40;;;;;;;4.57;1.50;;;12.60;99.90;;;;;;5115169;28;20375;-87
2022/07/11 00:17:09;;;;;;;4.03;1.60;;;12.60;99.90;;;;;;5114973;28;20470;-87
2022/07/11 00:19:37;;;;;;;3.60;1.40;;;12.50;99.90;;;;;;5114944;28;20390;-88
2022/07/11 00:22:06;;;;;;;2.63;1.40;;;12.50;99.90;;;;;;5096577;28;20818;-87
2022/07/11 00:24:34;;;;;;;4.72;1.40;;;12.60;99.90;;;;;;5096603;28;20900;-88
2022/07/11 00:27:02;;;;;;;4.43;1.80;;;12.60;99.90;;;;;;5113301;28;20971;-88
2022/07/11 00:29:30;;;;;;;3.70;1.27;;;12.70;99.90;;;;;;5096607;28;20402;-88
2022/07/11 00:31:58;;;;;;;4.90;1.50;;;12.70;99.90;;;;;;5096690;28;20386;-87
2022/07/11 00:34:26;;;;;;;3.90;1.60;;;12.70;99.90;;;;;;5114700;28;20869;-86
2022/07/11 00:36:54;;;;;;;3.88;1.45;;;12.80;99.90;;;;;;5096195;28;20382;-87
2022/07/11 00:39:22;;;;;;;5.60;1.70;;;12.70;99.90;;;;;;5096391;28;20379;-87
2022/07/11 00:41:50;;;;;;;3.97;1.88;;;12.70;99.90;;;;;;5086854;28;20904;-87
2022/07/11 00:44:17;;;;;;;2.37;1.53;;;12.60;99.90;;;;;;5114431;28;20378;-88
2022/07/11 00:46:45;;;;;;;4.53;1.60;;;12.60;99.90;;;;;;5096300;28;20456;-87
2022/07/11 00:49:13;;;;;;;5.88;1.90;;;12.50;99.90;;;;;;5096236;28;20386;-85
2022/07/11 00:51:42;;;;;;;5.80;1.75;;;12.60;99.90;;;;;;5095261;28;20749;-88
2022/07/11 00:54:11;;;;;;;4.40;1.60;;;12.60;99.90;;;;;;5113031;28;20472;-88
2022/07/11 00:56:40;;;;;;;3.05;1.48;;;12.60;99.90;;;;;;5079130;28;20391;-87
2022/07/11 00:59:08;;;;;;;4.07;1.52;;;12.50;99.90;;;;;;5096096;28;20391;-87
2022/07/11 01:01:38;;;;;;;6.13;1.90;;;12.40;99.90;;;;;;5095831;28;20391;-88
2022/07/11 01:04:06;;;;;;;4.45;1.75;;;12.50;99.90;;;;;;5113889;28;20383;-88
2022/07/11 01:06:34;;;;;;;3.47;2.00;;;12.50;99.90;;;;;;5095677;28;20768;-87
2022/07/11 01:09:02;;;;;;;2.97;1.50;;;12.50;99.90;;;;;;5088758;28;20772;-87
2022/07/11 01:11:30;;;;;;;6.05;1.45;;;12.40;99.90;;;;;;5070244;28;20768;-87
2022/07/11 01:13:58;;;;;;;3.33;1.60;;;12.40;99.90;;;;;;5071882;28;20390;-86
2022/07/11 01:16:26;;;;;;;3.65;1.58;;;12.40;99.90;;;;;;5063172;28;20430;-88
2022/07/11 01:18:55;;;;;;;6.10;1.63;;;12.30;99.90;;;;;;5051840;28;20420;-86
2022/07/11 01:21:30;;;;;;;6.32;1.80;;;12.30;99.90;;;;;;5051633;28;20396;-86
2022/07/11 01:24:01;;;;;;;4.90;1.73;;;12.30;99.90;;;;;;5051960;28;20473;-87
2022/07/11 01:26:29;;;;;;;4.68;1.60;;;12.20;99.90;;;;;;5067868;28;20395;-88
2022/07/11 01:29:09;;;;;;;4.10;1.65;;;12.10;99.90;;;;;;5052774;28;20902;-87
2022/07/11 01:31:44;;;;;;;2.88;1.65;;;12.10;99.90;;;;;;5085174;28;20441;-87
2022/07/11 01:34:12;;;;;;;3.00;1.50;;;12.10;99.90;;;;;;5089060;28;20397;-86
2022/07/11 01:36:42;;;;;;;3.77;1.67;;;12.20;99.90;;;;;;5079756;28;20390;-87
2022/07/11 01:39:10;;;;;;;3.80;1.50;;;12.20;99.90;;;;;;5063936;28;20422;-87
2022/07/11 01:41:39;;;;;;;3.63;1.50;;;12.10;99.90;;;;;;5052576;28;20384;-88
2022/07/11 01:44:07;;;;;;;3.03;1.57;;;12.10;99.90;;;;;;5052581;28;20399;-86
2022/07/11 01:46:34;;;;;;;2.88;1.40;;;12.10;99.90;;;;;;5065068;28;20389;-87
2022/07/11 01:49:02;;;;;;;5.38;1.80;;;12.10;99.90;;;;;;5071180;28;20445;-88
2022/07/11 01:51:30;;;;;;;3.47;1.42;;;12.10;99.90;;;;;;5072391;28;20386;-88
2022/07/11 01:53:58;;;;;;;2.15;1.40;;;12.00;99.90;;;;;;5067773;28;20404;-87
2022/07/11 01:56:27;;;;;;;3.20;1.60;;;11.90;99.90;;;;;;5072195;28;20934;-88
2022/07/11 01:59:01;;;;;;;5.10;1.80;;;11.90;99.90;;;;;;5105016;28;20837;-87
2022/07/11 02:01:29;;;;;;;3.50;1.55;;;12.00;99.90;;;;;;5071183;28;20398;-87
2022/07/11 02:03:58;;;;;;;2.95;1.40;;;12.00;99.90;;;;;;5071266;28;20477;-87
2022/07/11 02:06:26;;;;;;;5.10;1.85;;;12.00;99.90;;;;;;5070941;28;20390;-87
2022/07/11 02:08:54;;;;;;;4.07;1.52;;;12.00;99.90;;;;;;5108954;28;20402;-87
2022/07/11 02:11:21;;;;;;;4.45;1.50;;;11.90;99.90;;;;;;5094395;28;20424;-87
2022/07/11 02:13:49;;;;;;;4.13;1.67;;;11.90;99.90;;;;;;5094485;28;20472;-87
2022/07/11 02:16:18;;;;;;;4.45;1.52;;;11.90;99.90;;;;;;5112601;28;20385;-86
2022/07/11 02:18:45;;;;;;;3.45;1.65;;;11.90;99.90;;;;;;5094374;28;20391;-87
2022/07/11 02:21:13;;;;;;;2.80;1.45;;;11.90;99.90;;;;;;5094521;28;20390;-87
2022/07/11 02:23:41;;;;;;;3.03;1.67;;;11.90;99.90;;;;;;5094595;28;20408;-86
2022/07/11 02:26:09;;;;;;;5.20;1.52;;;11.90;99.90;;;;;;5112873;28;20433;-87
2022/07/11 02:28:37;;;;;;;5.25;2.42;;;11.90;99.90;;;;;;5111285;28;20406;-87
2022/07/11 02:31:05;;;;;;;3.47;2.00;;;11.90;99.90;;;;;;5112471;28;20752;-86
2022/07/11 02:33:33;;;;;;;2.85;1.70;;;11.80;99.90;;;;;;5094669;28;20378;-87
2022/07/11 02:36:01;;;;;;;3.28;1.50;;;11.80;99.90;;;;;;5094574;28;20473;-86
2022/07/11 02:38:28;;;;;;;4.10;1.48;;;11.80;99.90;;;;;;5112426;28;20874;-86
2022/07/11 02:40:56;;;;;;;3.53;1.88;;;11.80;99.90;;;;;;5111306;28;20389;-87
2022/07/11 02:43:24;;;;;;;2.70;1.67;;;11.80;99.90;;;;;;5094592;28;20455;-87
2022/07/11 02:45:52;;;;;;;4.70;1.85;;;11.80;99.90;;;;;;5112215;28;20387;-86
2022/07/11 02:48:20;;;;;;;3.40;1.60;;;11.90;99.90;;;;;;5094615;28;20402;-86
2022/07/11 02:50:48;;;;;;;4.83;1.60;;;11.90;99.90;;;;;;5094196;28;20379;-87
2022/07/11 02:53:15;;;;;;;2.72;1.40;;;11.80;99.90;;;;;;5111014;28;20439;-87
2022/07/11 02:55:43;;;;;;;2.80;1.50;;;11.80;99.90;;;;;;5111975;28;20872;-86
2022/07/11 02:58:11;;;;;;;3.55;1.30;;;11.80;99.90;;;;;;5094809;28;20414;-86
2022/07/11 03:00:39;;;;;;;3.10;1.52;;;11.80;99.90;;;;;;5094339;28;20395;-87
2022/07/11 03:03:07;;;;;;;2.92;1.48;;;11.90;99.90;;;;;;5112124;28;20391;-86
2022/07/11 03:05:34;;;;;;;3.00;1.67;;;11.90;99.90;;;;;;5093963;28;20383;-86
2022/07/11 03:08:02;;;;;;;2.33;1.42;;;11.90;99.90;;;;;;5092233;28;20407;-87
2022/07/11 03:10:30;;;;;;;2.97;1.60;;;11.90;99.90;;;;;;5082005;28;20419;-87
2022/07/11 03:12:58;;;;;;;2.40;1.40;;;12.00;99.90;;;;;;5103061;28;20390;-86
2022/07/11 03:15:26;;;;;;;3.92;1.60;;;12.00;99.90;;;;;;5096328;28;20378;-87
2022/07/11 03:17:53;;;;;;;3.67;1.80;;;11.90;99.90;;;;;;5094440;28;20483;-87
2022/07/11 03:20:21;;;;;;;4.40;1.60;;;11.90;99.90;;;;;;5095572;28;20471;-88
2022/07/11 03:22:50;;;;;;;2.15;1.60;;;11.90;99.90;;;;;;5077619;28;20388;-86
2022/07/11 03:25:17;;;;;;;3.90;1.75;;;11.90;99.90;;;;;;5094698;28;20483;-86
2022/07/11 03:27:45;;;;;;;2.25;1.40;;;11.80;99.90;;;;;;5095338;28;20438;-87
2022/07/11 03:30:14;;;;;;;4.15;1.60;;;11.90;99.90;;;;;;5094377;28;20384;-87
2022/07/11 03:32:42;;;;;;;4.13;1.80;;;11.90;99.90;;;;;;5087124;28;20401;-86
2022/07/11 03:37:56;;;;;;;3.45;1.35;;;11.80;99.90;;;;;;5095735;28;20421;-86
2022/07/11 03:40:24;;;;;;;3.83;1.35;;;11.80;99.90;;;;;;5095301;28;21065;-87
2022/07/11 03:42:52;;;;;;;4.50;1.50;;;11.90;99.90;;;;;;5094982;28;20393;-86
2022/07/11 03:45:19;;;;;;;3.70;1.40;;;11.90;99.90;;;;;;5095243;28;20380;-86
2022/07/11 03:47:48;;;;;;;3.25;1.48;;;11.90;99.90;;;;;;5094953;28;20395;-86
2022/07/11 03:50:16;;;;;;;4.43;1.90;;;11.90;99.90;;;;;;5094752;28;20385;-86
2022/07/11 03:52:45;;;;;;;4.45;1.88;;;11.90;99.90;;;;;;5076898;28;20392;-86
2022/07/11 03:55:13;;;;;;;2.65;1.40;;;12.00;99.90;;;;;;5086049;28;20411;-86
2022/07/11 03:57:40;;;;;;;3.30;1.27;;;12.00;99.90;;;;;;5094751;28;20380;-86
2022/07/11 04:00:09;;;;;;;2.22;1.40;;;12.00;99.90;;;;;;5095038;28;20453;-86
2022/07/11 04:02:37;;;;;;;2.65;1.13;;;12.10;99.90;;;;;;5077560;28;20432;-85
2022/07/11 04:05:06;;;;;;;3.30;1.33;;;12.10;99.90;;;;;;5106448;28;20441;-85
2022/07/11 04:07:34;;;;;;;4.00;1.42;;;12.20;99.90;;;;;;5114860;28;20387;-86
2022/07/11 04:10:02;;;;;;;2.75;1.27;;;12.20;99.90;;;;;;5114967;28;20402;-85
2022/07/11 04:12:30;;;;;;;3.30;1.17;;;12.30;99.90;;;;;;5115059;28;20406;-84
2022/07/11 04:14:58;;;;;;;2.95;1.67;;;12.30;99.90;;;;;;5097130;28;20381;-85
2022/07/11 04:17:26;;;;;;;3.35;1.45;;;12.30;99.90;;;;;;5115343;28;20379;-85
2022/07/11 04:19:54;;;;;;;2.97;1.30;;;12.30;99.90;;;;;;5109764;28;20446;-87
2022/07/11 04:22:23;;;;;;;3.15;1.55;;;12.40;99.90;;;;;;5114824;28;20414;-86
2022/07/11 04:24:50;;;;;;;3.17;1.38;;;12.40;99.90;;;;;;5096530;28;20730;-87
2022/07/11 04:27:18;;;;;;;2.75;1.52;;;12.40;99.90;;;;;;5095876;28;20477;-85
2022/07/11 04:29:49;;;;;;;4.95;2.00;;;12.40;99.90;;;;;;5114475;28;20406;-86
2022/07/11 04:32:17;;;;;;;2.85;1.70;;;12.40;99.90;;;;;;5113362;28;20420;-85
2022/07/11 04:34:45;;;;;;;2.63;1.60;;;12.40;99.90;;;;;;5096791;28;20386;-86
2022/07/11 04:37:13;;;;;;;5.30;1.47;;;12.50;99.90;;;;;;5114495;28;20391;-86
2022/07/11 04:39:41;;;;;;;4.55;1.30;;;12.50;99.90;;;;;;5096690;28;20409;-85
2022/07/11 04:42:09;;;;;;;3.20;1.30;;;12.50;99.90;;;;;;5096141;28;20389;-85
2022/07/11 04:44:37;;;;;;;2.45;1.42;;;12.50;99.90;;;;;;5113108;28;20791;-84
2022/07/11 04:47:05;;;;;;;2.45;1.40;;;12.50;99.90;;;;;;5096035;28;20391;-84
2022/07/11 04:49:33;;;;;;;3.83;1.63;;;12.60;99.90;;;;;;5096329;28;20395;-84
2022/07/11 04:52:00;;;;;;;2.78;1.45;;;12.70;99.90;;;;;;5095899;28;20428;-85
2022/07/11 04:54:29;;;;;;;4.05;1.88;;;12.70;99.90;;;;;;5114283;28;20406;-85
2022/07/11 04:56:57;;;;;;;2.40;1.65;;;12.70;99.90;;;;;;5095839;28;20450;-85
2022/07/11 04:59:26;;;;;;;3.78;1.60;;;12.80;99.90;;;;;;5095809;28;20908;-84
2022/07/11 05:01:53;;;;;;;3.30;1.65;;;12.80;99.90;;;;;;5072333;28;20388;-85
2022/07/11 05:04:23;;;;;;;2.78;1.65;;;12.90;99.90;;;;;;5076124;28;20385;-85
2022/07/11 05:06:50;;;;;;;2.77;1.53;;;13.00;99.90;;;;;;5095925;28;20479;-85
2022/07/11 05:09:18;;;;;;;4.60;1.63;;;13.10;99.90;;;;;;5064422;28;20401;-85
2022/07/11 05:11:46;;;;;;;3.77;1.90;;;13.10;99.90;;;;;;5114489;28;20371;-88
2022/07/11 05:14:13;;;;;;;3.58;1.80;;;13.20;99.90;;;;;;5101285;28;20386;-82
2022/07/11 05:16:41;;;;;;;4.10;2.10;;;13.30;99.90;;;;;;5106792;28;20391;-80
2022/07/11 05:19:09;;;;;;;4.43;2.20;;;13.40;99.90;;;;;;5121244;28;20387;-80
2022/07/11 05:21:37;;;;;;;3.70;1.70;;;13.50;99.90;;;;;;5122483;28;20433;-81
2022/07/11 05:24:06;;;;;;;4.65;2.00;;;13.60;99.90;;;;;;5122234;28;20477;-81
2022/07/11 05:26:33;;;;;;;4.85;2.15;;;13.60;99.90;;;;;;5121304;28;20466;-83
2022/07/11 05:29:01;;;;;;;3.22;1.60;;;13.70;99.90;;;;;;5103773;28;20428;-80
2022/07/11 05:31:31;;;;;;;5.10;1.70;;;13.80;99.90;;;;;;5102568;28;20392;-82
2022/07/11 05:33:59;;;;;;;3.08;1.63;;;13.80;99.90;;;;;;5122455;28;20861;-79
2022/07/11 05:36:30;;;;;;;4.38;1.83;;;13.90;99.90;;;;;;5106867;28;20382;-80
2022/07/11 05:38:58;;;;;;;4.80;1.90;;;14.00;99.90;;;;;;5106800;28;20470;-80
2022/07/11 05:41:26;;;;;;;3.28;1.50;;;14.10;99.90;;;;;;5124240;28;20390;-85
2022/07/11 05:43:54;;;;;;;4.90;1.70;;;14.20;99.90;;;;;;5124980;28;20387;-80
2022/07/11 05:46:22;;;;;;;5.38;1.73;;;14.20;99.90;;;;;;5124560;28;20383;-82
2022/07/11 05:48:49;;;;;;;2.80;1.75;;;14.30;99.90;;;;;;5123610;28;20394;-80
2022/07/11 05:51:23;;;;;;;2.78;1.63;;;14.30;99.90;;;;;;5124781;28;20379;-84
2022/07/11 05:53:51;;;;;;;5.57;1.90;;;14.30;99.90;;;;;;5122855;28;20386;-81
2022/07/11 05:56:19;;;;;;;4.28;1.73;;;14.30;99.90;;;;;;5123168;28;20412;-82
2022/07/11 05:58:47;;;;;;;3.08;1.50;;;14.40;99.90;;;;;;5106815;28;20430;-79
2022/07/11 06:01:14;;;;;;;3.03;1.40;;;14.40;99.90;;;;;;5106758;28;20489;-80
2022/07/11 06:03:42;;;;;;;4.53;1.90;;;14.40;99.90;;;;;;5123994;28;20467;-84
2022/07/11 06:06:10;;;;;;;2.43;1.43;;;14.40;99.90;;;;;;5123681;28;20412;-80
2022/07/11 06:08:41;;;;;;;4.10;1.60;;;14.40;99.90;;;;;;5105236;28;20453;-79
2022/07/11 06:11:17;;;;;;;4.40;1.40;;;14.50;99.90;;;;;;5095680;28;20398;-79
2022/07/11 06:13:45;;;;;;;1.77;1.35;;;14.60;99.90;;;;;;5086614;28;20395;-80
2022/07/11 06:16:13;;;;;;;3.22;1.30;;;14.60;99.90;;;;;;5104663;28;20434;-80
2022/07/11 06:18:41;;;;;;;4.00;1.52;;;14.80;99.90;;;;;;5104701;28;20384;-80
2022/07/11 06:21:09;;;;;;;2.15;1.40;;;14.80;99.90;;;;;;5106919;28;20459;-80
2022/07/11 06:23:37;;;;;;;3.55;1.45;;;14.80;99.90;;;;;;5124883;28;20391;-82
2022/07/11 06:26:05;;;;;;;3.43;1.40;;;14.80;99.90;;;;;;5106928;28;20397;-80
2022/07/11 06:28:33;;;;;;;3.13;1.40;;;14.80;99.90;;;;;;5125014;28;20390;-80
2022/07/11 06:31:02;;;;;;;3.95;1.30;;;14.80;99.90;;;;;;5107250;28;20379;-80
2022/07/11 06:33:29;;;;;;;3.55;1.45;;;15.10;99.90;;;;;;5125216;28;20383;-80
2022/07/11 06:35:57;;;;;;;2.30;1.20;;;15.00;99.90;;;;;;5125174;28;20371;-80
2022/07/11 06:38:25;;;;;;;3.05;1.40;;;15.10;99.90;;;;;;5117732;28;20532;-83
2022/07/11 06:40:53;;;;;;;2.05;1.30;;;15.20;99.90;;;;;;5118521;28;20386;-80
2022/07/11 06:43:21;;;;;;;3.58;1.30;;;15.10;99.90;;;;;;5124923;28;20389;-80
2022/07/11 06:45:49;;;;;;;2.73;1.40;;;15.20;99.90;;;;;;5106660;28;20446;-80
2022/07/11 06:48:17;;;;;;;2.70;1.48;;;15.20;99.90;;;;;;5124755;28;20771;-80
2022/07/11 06:50:45;;;;;;;3.42;1.25;;;15.20;99.90;;;;;;5123374;28;20391;-80
2022/07/11 06:53:13;;;;;;;2.10;1.15;;;15.30;99.90;;;;;;5128299;28;20379;-80
2022/07/11 06:55:41;;;;;;;2.75;1.10;;;15.30;99.90;;;;;;5128050;28;20390;-80
2022/07/11 06:58:09;;;;;;;2.42;1.10;;;15.40;99.90;;;;;;5116396;28;20500;-86
2022/07/11 07:00:52;;;;;;;7.38;1.52;;;15.30;99.90;;;;;;5089276;28;20818;-79
2022/07/11 07:03:20;;;;;;;2.85;1.20;;;15.30;99.90;;;;;;5073750;28;20754;-80
2022/07/11 07:05:48;;;;;;;3.78;1.20;;;15.40;99.90;;;;;;5105959;28;20464;-79
2022/07/11 07:08:19;;;;;;;4.55;1.30;;;15.50;99.90;;;;;;5090062;28;20388;-80
2022/07/11 07:10:46;;;;;;;2.53;1.10;;;15.70;99.90;;;;;;5114935;28;20429;-80
2022/07/11 07:13:14;;;;;;;4.40;1.30;;;15.80;99.90;;;;;;5110937;28;20433;-80
2022/07/11 07:15:42;;;;;;;2.70;1.20;;;15.90;99.90;;;;;;5110714;28;20390;-80
2022/07/11 07:18:09;;;;;;;2.30;1.10;;;16.00;99.90;;;;;;5110367;28;20379;-80
2022/07/11 07:20:37;;;;;;;2.95;1.30;;;16.00;99.90;;;;;;5110153;28;20412;-80
2022/07/11 07:23:05;;;;;;;4.07;1.40;;;16.10;99.90;;;;;;5128750;28;20408;-79
2022/07/11 07:25:33;;;;;;;4.73;1.43;;;16.20;99.90;;;;;;5110231;28;20419;-79
2022/07/11 07:28:01;;;;;;;3.08;1.40;;;16.30;99.90;;;;;;5110223;28;20382;-79
2022/07/11 07:30:29;;;;;;;4.18;1.40;;;16.30;99.90;;;;;;5128556;28;20399;-80
2022/07/11 07:32:56;;;;;;;3.33;1.35;;;16.40;99.90;;;;;;5128569;28;20431;-79
2022/07/11 07:35:24;;;;;;;3.65;1.35;;;16.60;99.90;;;;;;5110477;28;20404;-80
2022/07/11 07:37:52;;;;;;;2.80;1.33;;;16.60;99.90;;;;;;5128438;28;20452;-79
2022/07/11 07:40:20;;;;;;;3.50;1.55;;;16.70;99.90;;;;;;5128470;28;20387;-79
2022/07/11 07:42:48;;;;;;;2.97;1.40;;;16.70;99.90;;;;;;5110257;28;20405;-80
2022/07/11 07:45:15;;;;;;;3.70;1.50;;;16.70;99.90;;;;;;5128312;28;20383;-79
2022/07/11 07:47:43;;;;;;;3.90;1.42;;;16.70;99.90;;;;;;5127232;28;20409;-80
2022/07/11 07:50:11;;;;;;;2.60;1.27;;;16.70;99.90;;;;;;5109179;28;20403;-81
2022/07/11 07:52:39;;;;;;;3.65;1.55;;;16.80;99.90;;;;;;5109551;28;20390;-79
2022/07/11 07:55:07;;;;;;;2.67;1.30;;;16.90;99.90;;;;;;5127185;28;20385;-80
2022/07/11 07:57:35;;;;;;;4.60;1.40;;;17.10;99.90;;;;;;5108253;28;20965;-81
2022/07/11 08:02:50;;;;;;;3.28;1.27;;;17.40;99.90;;;;;;5125935;28;20464;-80
2022/07/11 08:05:19;;;;;;;4.72;1.42;;;17.50;99.90;;;;;;5125503;28;20401;-81
2022/07/11 08:07:47;;;;;;;4.15;1.45;;;17.60;99.90;;;;;;5106829;28;20393;-80
2022/07/11 08:10:15;;;;;;;2.97;1.40;;;17.80;99.90;;;;;;5105845;28;20409;-83
2022/07/11 08:12:44;;;;;;;4.45;1.50;;;17.90;99.90;;;;;;5123886;28;20408;-80
2022/07/11 08:15:12;;;;;;;3.85;1.40;;;17.90;99.90;;;;;;5125643;28;20470;-82
2022/07/11 08:17:41;;;;;;;3.83;1.48;;;17.80;99.90;;;;;;5125500;28;20382;-86
2022/07/11 08:20:09;;;;;;;3.47;1.58;;;17.70;99.90;;;;;;5102996;28;20780;-84
2022/07/11 08:22:37;;;;;;;3.35;1.15;;;17.70;99.90;;;;;;5118893;28;20452;-87
2022/07/11 08:25:08;;;;;;;1.83;1.17;;;17.80;99.90;;;;;;5083662;28;20416;-85
2022/07/11 08:27:37;;;;;;;3.28;1.45;;;17.60;99.90;;;;;;5118534;28;20443;-87
2022/07/11 08:30:08;;;;;;;4.67;1.50;;;17.50;99.90;;;;;;5117164;28;20933;-87
2022/07/11 08:32:40;;;;;;;3.27;1.30;;;17.60;99.90;;;;;;5083444;28;20420;-86
2022/07/11 08:35:15;;;;;;;5.18;1.60;;;17.90;99.90;;;;;;5117315;28;20429;-85
2022/07/11 08:37:43;;;;;;;4.47;1.70;;;18.10;99.90;;;;;;5080532;28;20809;-87
2022/07/11 08:40:11;;;;;;;3.88;1.52;;;18.10;99.90;;;;;;5116458;28;20412;-85
2022/07/11 08:42:44;;;;;;;3.88;1.35;;;18.00;99.90;;;;;;5116296;28;20390;-85
2022/07/11 08:45:13;;;;;;;2.88;1.30;;;17.90;99.90;;;;;;5080623;28;20461;-88
2022/07/11 08:47:43;;;;;;;3.85;1.30;;;18.00;99.90;;;;;;5098206;28;20402;-84
2022/07/11 08:50:12;;;;;;;2.07;1.33;;;18.10;99.90;;;;;;5113390;28;20399;-86
2022/07/11 08:52:40;;;;;;;3.63;1.50;;;18.10;99.90;;;;;;5098341;28;20401;-84
2022/07/11 08:55:09;;;;;;;3.78;1.27;;;18.10;99.90;;;;;;5101069;28;20383;-86
2022/07/11 08:57:37;;;;;;;2.97;1.10;;;18.20;99.90;;;;;;5101635;28;20393;-88
2022/07/11 09:00:08;;;;;;;2.83;1.30;;;18.40;99.90;;;;;;5105903;28;20450;-79
2022/07/11 09:02:36;;;;;;;3.63;1.30;;;18.30;99.90;;;;;;5108658;28;20411;-79
2022/07/11 09:05:07;;;;;;;2.42;1.15;;;18.20;99.90;;;;;;5126912;28;20389;-79
2022/07/11 09:07:46;;;;;;;3.78;1.33;;;18.10;99.90;;;;;;5104781;28;20399;-79
2022/07/11 09:10:15;;;;;;;1.85;1.00;;;18.00;99.90;;;;;;5106422;28;20469;-80
2022/07/11 09:13:15;;;;;;;2.92;1.10;;;18.10;99.90;;;;;;5104267;28;20384;-80
2022/07/11 09:15:45;;;;;;;3.10;1.13;;;18.40;99.90;;;;;;5121752;28;20389;-79
2022/07/11 09:18:26;;;;;;;4.13;1.30;;;18.50;99.90;;;;;;5106107;28;20380;-79
2022/07/11 09:26:52;;;;;;;2.75;1.30;;;18.70;99.90;;;;;;5105958;28;20391;-79
2022/07/11 09:29:24;;;;;;;3.88;1.00;;;18.60;99.90;;;;;;5105876;28;20422;-79
2022/07/11 09:31:52;;;;;;;3.33;1.40;;;18.70;99.90;;;;;;5105818;28;20385;-79
2022/07/11 09:34:23;;;;;;;3.22;1.27;;;18.90;99.90;;;;;;5105824;28;20791;-79
2022/07/11 09:36:55;;;;;;;2.60;1.00;;;19.20;99.90;;;;;;5121310;28;20442;-79
2022/07/11 09:39:30;;;;;;;3.90;1.17;;;19.30;99.90;;;;;;5105966;28;20380;-80
2022/07/11 09:41:58;;;;;;;2.83;0.98;;;19.40;99.90;;;;;;5121323;28;20391;-80
2022/07/11 09:44:33;;;;;;;2.47;1.00;;;19.50;99.90;;;;;;5121115;28;20387;-80
2022/07/11 09:47:10;;;;;;;4.28;1.10;;;19.60;99.90;;;;;;5105620;28;20874;-79
2022/07/11 09:49:39;;;;;;;1.60;1.20;;;19.70;99.90;;;;;;5120976;28;20421;-80
2022/07/11 09:52:11;;;;;;;4.47;1.20;;;19.80;99.90;;;;;;5105447;28;20380;-79
2022/07/11 09:55:00;;;;;;;3.63;1.20;;;19.90;99.90;;;;;;5105347;28;20384;-79
2022/07/11 09:57:29;;;;;;;3.83;1.35;;;20.00;99.90;;;;;;5121067;28;20612;-79
2022/07/11 09:59:57;;;;;;;3.20;1.15;;;19.90;99.90;;;;;;5105379;28;20430;-80
2022/07/11 10:02:26;;;;;;;2.83;0.90;;;19.80;99.90;;;;;;5103918;28;20809;-79
2022/07/11 10:04:54;;;;;;;1.77;1.05;;;19.90;99.90;;;;;;5120788;28;20385;-80
2022/07/11 10:07:22;;;;;;;2.15;1.05;;;19.90;99.90;;;;;;5110592;28;20391;-79
2022/07/11 10:09:50;;;;;;;2.80;1.10;;;20.00;99.90;;;;;;5107270;28;20432;-79
2022/07/11 10:12:19;;;;;;;3.30;1.00;;;19.90;99.90;;;;;;5125574;28;20383;-80
2022/07/11 10:14:49;;;;;;;1.98;0.95;;;19.80;99.90;;;;;;5105054;28;20389;-86
2022/07/11 10:17:27;;;;;;;5.90;1.40;;;19.80;99.90;;;;;;5097981;28;20399;-89
2022/07/11 10:20:17;;;;;;;3.25;1.10;;;19.70;99.90;;;;;;5115096;28;20387;-83
2022/07/11 10:23:02;;;;;;;4.20;1.10;;;19.70;99.90;;;;;;5118866;28;20390;-84
2022/07/11 10:25:50;;;;;;;3.25;1.20;;;19.70;99.90;;;;;;5115557;28;20434;-86
2022/07/11 10:28:49;;;;;;;2.30;1.02;;;19.70;99.90;;;;;;5120618;28;20387;-85
2022/07/11 10:31:22;;;;;;;3.08;1.15;;;19.80;99.90;;;;;;5118968;28;20398;-83
2022/07/11 10:34:08;;;;;;;2.97;1.20;;;20.00;99.90;;;;;;5101075;28;20374;-87
2022/07/11 10:36:44;;;;;;;8.57;1.57;;;20.30;99.90;;;;;;5095848;28;20402;-85
2022/07/11 10:39:26;;;;;;;3.85;1.38;;;20.40;99.90;;;;;;5096579;28;20375;-87
2022/07/11 10:41:59;;;;;;;2.70;1.20;;;20.50;99.90;;;;;;5090268;28;20432;-87
2022/07/11 10:44:28;;;;;;;3.42;1.25;;;20.70;99.90;;;;;;5109964;28;20383;-87
2022/07/11 10:46:56;;;;;;;2.30;1.08;;;20.60;99.90;;;;;;5110863;28;20424;-87
2022/07/11 10:49:47;;;;;;;3.00;1.00;;;20.60;99.90;;;;;;5111932;28;20389;-86
2022/07/11 10:52:22;;;;;;;2.70;1.17;;;20.60;99.90;;;;;;5094483;28;20382;-85
2022/07/11 10:55:07;;;;;;;3.27;1.10;;;20.70;99.90;;;;;;5093978;28;20390;-86
2022/07/11 10:57:56;;;;;;;3.42;1.10;;;20.80;99.90;;;;;;5094017;28;20382;-87
2022/07/11 11:00:24;;;;;;;3.40;1.15;;;20.80;99.90;;;;;;5094643;28;20473;-87
2022/07/11 11:03:06;;;;;;;3.50;1.02;;;20.90;99.90;;;;;;5111899;28;20394;-86
2022/07/11 11:05:52;;;;;;;2.33;0.93;;;21.10;99.90;;;;;;5088650;28;20529;-84
2022/07/11 11:08:33;;;;;;;3.63;1.00;;;21.10;99.90;;;;;;5080075;28;20389;-86
2022/07/11 11:11:05;;;;;;;2.25;1.20;;;21.20;99.90;;;;;;5087367;28;20402;-87
2022/07/11 11:13:37;;;;;;;2.90;1.10;;;21.30;99.90;;;;;;5106705;28;20427;-87
2022/07/11 11:16:24;;;;;;;3.97;0.87;;;21.20;99.90;;;;;;5084579;28;20398;-85
2022/07/11 11:18:52;;;;;;;2.40;1.03;;;21.30;99.90;;;;;;5085073;28;20433;-86
2022/07/11 11:21:21;;;;;;;3.05;1.00;;;21.30;99.90;;;;;;5090508;28;20805;-86
2022/07/11 11:24:02;;;;;;;2.40;1.15;;;21.30;99.90;;;;;;5090684;28;20484;-86
2022/07/11 11:26:46;;;;;;;5.22;1.25;;;21.40;99.90;;;;;;5091728;28;20381;-87
2022/07/11 11:29:23;;;;;;;2.97;1.00;;;21.30;99.90;;;;;;5091722;28;20453;-88
2022/07/11 11:31:58;;;;;;;2.42;1.05;;;21.40;99.90;;;;;;5091457;28;20432;-87
2022/07/11 11:34:27;;;;;;;4.00;1.17;;;21.50;99.90;;;;;;5073690;28;20400;-87
2022/07/11 11:37:00;;;;;;;3.78;0.82;;;21.50;99.90;;;;;;5094749;28;20383;-87
2022/07/11 11:39:31;;;;;;;3.10;0.90;;;21.30;99.90;;;;;;5095495;28;20376;-87
2022/07/11 11:42:08;;;;;;;3.13;0.98;;;21.20;99.90;;;;;;5094695;28;20467;-86
2022/07/11 11:44:52;;;;;;;3.60;0.90;;;21.40;99.90;;;;;;5095585;28;20380;-88
2022/07/11 11:47:20;;;;;;;1.80;1.00;;;21.50;99.90;;;;;;5096187;28;20388;-87
2022/07/11 11:49:49;;;;;;;2.13;0.90;;;21.50;99.90;;;;;;5094929;28;20388;-87
2022/07/11 11:52:18;;;;;;;2.85;1.13;;;21.60;99.90;;;;;;5096739;28;20395;-86
2022/07/11 11:54:55;;;;;;;3.08;1.20;;;21.80;99.90;;;;;;5097728;28;20388;-82
2022/07/11 11:57:25;;;;;;;2.22;0.90;;;21.90;99.90;;;;;;5089912;28;20400;-85
2022/07/11 11:59:53;;;;;;;3.90;1.00;;;21.90;99.90;;;;;;5075844;28;20385;-83
2022/07/11 12:02:26;;;;;;;6.65;1.30;;;22.10;99.90;;;;;;5093969;28;20390;-86
2022/07/11 12:04:55;;;;;;;1.75;0.90;;;22.10;99.90;;;;;;5094936;28;20372;-87
2022/07/11 12:07:26;;;;;;;7.03;1.50;;;22.10;99.90;;;;;;5100080;28;20934;-87
2022/07/11 12:09:59;;;;;;;3.08;1.10;;;22.20;99.90;;;;;;5115132;28;20443;-87
2022/07/11 12:12:46;;;;;;;3.70;1.27;;;22.10;99.90;;;;;;5114852;28;20383;-86
2022/07/11 12:16:39;;;;;;;3.20;1.00;;;22.00;99.90;;;;;;5110605;27;20471;-87
2022/07/11 12:18:24;;;;;;;2.67;1.20;;;22.20;99.90;;;;;;5094480;28;20388;-85
2022/07/11 12:20:53;;;;;;;3.20;1.00;;;22.30;99.90;;;;;;5094446;28;20459;-86
2022/07/11 12:23:21;;;;;;;4.05;1.08;;;22.40;99.90;;;;;;5093320;28;20906;-86
2022/07/11 12:25:50;;;;;;;3.45;1.20;;;22.40;99.90;;;;;;5096935;28;20397;-84
2022/07/11 12:28:18;;;;;;;4.45;1.10;;;22.50;99.90;;;;;;5102174;28;20461;-83
2022/07/11 12:30:53;;;;;;;2.13;1.10;;;22.40;99.90;;;;;;5089414;28;20805;-85
2022/07/11 12:33:23;;;;;;;3.60;1.30;;;22.40;99.90;;;;;;5085613;28;20485;-85
2022/07/11 12:35:59;;;;;;;2.10;1.00;;;22.70;99.90;;;;;;5100542;28;20423;-84
2022/07/11 12:38:51;;;;;;;2.23;1.00;;;22.70;99.90;;;;;;5090401;28;20386;-84
2022/07/11 12:45:11;;;;;;;3.55;1.38;;;23.00;99.90;;;;;;5086545;28;20442;-86
2022/07/11 12:47:41;;;;;;;2.20;1.10;;;22.80;99.90;;;;;;5091931;28;20482;-86
2022/07/11 12:50:20;;;;;;;4.18;1.40;;;22.70;99.90;;;;;;5075808;28;20946;-86
2022/07/11 12:52:54;;;;;;;4.25;1.30;;;22.70;99.90;;;;;;5076079;28;20490;-85
2022/07/11 12:55:24;;;;;;;3.05;1.00;;;22.70;99.90;;;;;;5094018;28;20796;-85
2022/07/11 12:58:10;;;;;;;3.45;1.10;;;22.70;99.90;;;;;;5076650;28;20476;-86
2022/07/11 13:00:54;;;;;;;2.30;1.00;;;22.70;99.90;;;;;;5113384;28;20393;-86
2022/07/11 13:03:36;;;;;;;3.88;0.98;;;22.80;99.90;;;;;;5093794;28;20924;-85
2022/07/11 13:06:04;;;;;;;7.50;1.20;;;22.70;99.90;;;;;;5091803;28;20381;-87
2022/07/11 13:09:16;;;;;;;5.65;1.13;;;22.70;99.90;;;;;;5107055;28;20402;-82
2022/07/11 13:11:44;;;;;;;4.82;1.20;;;22.70;99.90;;;;;;5093477;28;20405;-86
2022/07/11 13:16:59;;;;;;;5.00;1.10;;;22.60;99.90;;;;;;5093551;28;20407;-83
2022/07/11 13:19:27;;;;;;;3.27;1.27;;;22.50;99.90;;;;;;5075536;28;20376;-86
2022/07/11 13:21:55;;;;;;;2.58;1.10;;;22.50;99.90;;;;;;5093402;28;20553;-87
2022/07/11 13:24:24;;;;;;;2.10;1.10;;;22.40;99.90;;;;;;5092155;28;20388;-85